Time;durP1;ratioP1;P1;durP2;ratioP2;P2;SDS_P1;SDS_P2;PMS_P1;PMS_P2;Temp;Humidity;BMP_temperature;BMP_pressure;BME280_temperature;BME280_humidity;BME280_pressure;Samples;Min_cycle;Max_cycle;Signal;HPM_P1;HPM_P2
2023/08/06 00:00:20;;;;;;;8.65;7.30;;;16.50;86.90;;;15.24;100.00;95320.91;4993880;28;20025;-66
2023/08/06 00:02:46;;;;;;;6.88;6.18;;;16.60;86.70;;;15.24;100.00;95315.59;5024266;28;20099;-66
2023/08/06 00:05:11;;;;;;;8.52;6.72;;;16.50;86.50;;;15.25;100.00;95327.78;5024514;28;20025;-65
2023/08/06 00:07:37;;;;;;;8.25;6.65;;;16.50;86.40;;;15.25;100.00;95319.84;5004433;28;20045;-66
2023/08/06 00:10:03;;;;;;;7.15;6.10;;;16.60;86.50;;;15.25;100.00;95317.19;5020103;28;20120;-66
2023/08/06 00:12:29;;;;;;;7.43;6.65;;;16.50;86.50;;;15.25;100.00;95327.78;4989067;28;20045;-66
2023/08/06 00:14:55;;;;;;;8.43;6.35;;;16.50;86.70;;;15.25;100.00;95324.34;5021731;28;20041;-65
2023/08/06 00:17:21;;;;;;;6.80;5.78;;;16.50;86.90;;;15.26;100.00;95324.09;5054401;28;20037;-66
2023/08/06 00:19:46;;;;;;;6.95;6.10;;;16.50;86.60;;;15.25;100.00;95317.19;5019632;28;20045;-66
2023/08/06 00:22:12;;;;;;;6.85;6.22;;;16.60;86.50;;;15.26;100.00;95318.00;4998665;28;20730;-66
2023/08/06 00:24:38;;;;;;;7.22;6.53;;;16.60;86.20;;;15.26;100.00;95318.00;5008090;28;20502;-65
2023/08/06 00:27:04;;;;;;;7.30;6.28;;;16.60;86.10;;;15.24;100.00;95310.28;4994680;28;20064;-66
2023/08/06 00:29:30;;;;;;;8.13;5.95;;;16.50;86.20;;;15.25;100.00;95316.41;4996450;28;20783;-65
2023/08/06 00:31:56;;;;;;;7.70;7.00;;;16.50;86.20;;;15.25;100.00;95317.19;5007646;28;20037;-65
2023/08/06 00:34:21;;;;;;;6.97;6.28;;;16.50;86.20;;;15.22;100.00;95311.56;5013803;28;20516;-65
2023/08/06 00:36:47;;;;;;;10.70;7.45;;;16.50;86.00;;;15.19;100.00;95307.56;5021124;28;20041;-66
2023/08/06 00:39:13;;;;;;;8.75;7.43;;;16.50;86.00;;;15.17;100.00;95307.00;4977414;28;21198;-66
2023/08/06 00:41:39;;;;;;;9.52;7.68;;;16.50;86.00;;;15.17;100.00;95299.06;4991304;28;20037;-67
2023/08/06 00:44:05;;;;;;;10.57;9.38;;;16.50;86.00;;;15.16;100.00;95297.44;5009894;28;20033;-65
2023/08/06 00:46:31;;;;;;;14.40;12.15;;;16.50;86.10;;;15.15;100.00;95303.75;5022391;28;20120;-65
2023/08/06 00:48:57;;;;;;;12.48;9.93;;;16.40;86.00;;;15.11;100.00;95296.53;5011873;28;20039;-66
2023/08/06 00:51:23;;;;;;;8.27;7.40;;;16.40;86.10;;;15.11;100.00;95304.47;5003362;28;20126;-65
2023/08/06 00:53:49;;;;;;;7.53;6.72;;;16.30;85.60;;;15.04;100.00;95296.66;5022633;28;20041;-66
2023/08/06 00:56:15;;;;;;;9.02;7.40;;;16.20;85.80;;;15.03;100.00;95297.72;5016362;28;20041;-66
2023/08/06 00:58:41;;;;;;;6.72;5.78;;;16.20;85.90;;;15.00;100.00;95290.25;5004179;28;20087;-66
2023/08/06 01:01:07;;;;;;;7.00;5.70;;;16.20;85.50;;;14.97;100.00;95299.47;4993704;28;20350;-66
2023/08/06 01:03:32;;;;;;;6.03;5.35;;;16.10;85.50;;;14.93;100.00;95294.84;5042971;28;20413;-66
2023/08/06 01:05:58;;;;;;;8.27;5.78;;;16.10;85.10;;;14.89;100.00;95291.88;5036715;28;20120;-66
2023/08/06 01:08:50;;;;;;;6.78;5.80;;;16.10;85.50;;;14.87;100.00;95298.44;5013352;28;20160;-66
2023/08/06 01:11:44;;;;;;;5.93;5.30;;;16.10;85.60;;;14.82;100.00;95296.50;5019357;28;20025;-67
2023/08/06 01:14:28;;;;;;;6.85;5.15;;;16.00;85.20;;;14.78;100.00;95294.56;5026408;28;20037;-66
2023/08/06 01:16:54;;;;;;;7.80;5.40;;;16.00;85.40;;;14.70;100.00;95298.38;5026877;28;20068;-65
2023/08/06 01:19:20;;;;;;;6.60;5.35;;;15.80;85.80;;;14.66;100.00;95292.75;5026227;28;20037;-66
2023/08/06 01:21:45;;;;;;;5.78;5.18;;;15.70;85.40;;;14.63;100.00;95287.91;5038352;28;20037;-66
2023/08/06 01:24:11;;;;;;;6.25;4.95;;;15.80;85.80;;;14.60;100.00;95284.94;5009719;28;20098;-66
2023/08/06 01:26:51;;;;;;;6.05;4.68;;;15.80;85.60;;;14.57;100.00;95278.28;5015755;28;20030;-66
2023/08/06 01:29:20;;;;;;;6.68;4.78;;;15.80;85.90;;;14.53;100.00;95282.44;5026202;28;20128;-67
2023/08/06 01:31:48;;;;;;;4.93;4.43;;;15.60;85.90;;;14.48;100.00;95274.38;5026892;28;20037;-66
2023/08/06 01:34:24;;;;;;;5.13;4.63;;;15.60;85.90;;;14.49;100.00;95278.66;4992166;28;20068;-66
2023/08/06 01:36:53;;;;;;;4.95;4.50;;;15.60;85.60;;;14.46;100.00;95278.28;5028204;28;20033;-66
2023/08/06 01:39:21;;;;;;;10.02;4.60;;;15.60;85.50;;;14.44;100.00;95272.44;5005322;28;20033;-67
2023/08/06 01:41:48;;;;;;;5.97;4.43;;;15.60;85.40;;;14.40;100.00;95270.22;5010146;28;20455;-68
2023/08/06 01:44:15;;;;;;;5.72;4.28;;;15.60;85.60;;;14.41;100.00;95263.09;5041250;28;20078;-66
2023/08/06 01:46:40;;;;;;;5.20;4.38;;;15.60;85.40;;;14.40;100.00;95264.13;5014732;28;20037;-67
2023/08/06 01:49:06;;;;;;;4.75;4.25;;;15.60;85.30;;;14.37;100.00;95261.94;5015892;28;20043;-67
2023/08/06 01:51:32;;;;;;;5.60;4.30;;;15.70;85.50;;;14.39;100.00;95265.16;5014489;28;20037;-67
2023/08/06 01:53:58;;;;;;;6.95;4.97;;;15.60;85.60;;;14.38;100.00;95268.84;4999806;28;20037;-67
2023/08/06 01:56:26;;;;;;;5.15;4.35;;;15.70;85.50;;;14.35;100.00;95259.53;5024573;28;20041;-67
2023/08/06 01:58:52;;;;;;;5.47;4.15;;;15.70;85.40;;;14.34;100.00;95265.88;5015901;28;20260;-67
2023/08/06 02:01:18;;;;;;;6.03;4.47;;;15.60;85.30;;;14.34;100.00;95265.06;5020470;28;20029;-67
2023/08/06 02:03:44;;;;;;;5.90;4.68;;;15.60;85.40;;;14.34;100.00;95259.78;5008435;28;20563;-67
2023/08/06 02:06:10;;;;;;;5.15;4.65;;;15.70;85.40;;;14.32;100.00;95265.28;4998951;28;20053;-66
2023/08/06 02:08:35;;;;;;;6.32;4.65;;;15.60;85.10;;;14.30;100.00;95269.22;5035647;28;20510;-67
2023/08/06 02:11:02;;;;;;;6.10;4.72;;;15.60;85.50;;;14.28;100.00;95255.41;4998540;28;20087;-67
2023/08/06 02:13:28;;;;;;;6.35;4.40;;;15.50;85.50;;;14.27;100.00;95264.38;5011053;28;20466;-66
2023/08/06 02:15:54;;;;;;;4.88;4.38;;;15.50;85.40;;;14.23;100.00;95256.09;5006712;28;20034;-67
2023/08/06 02:18:19;;;;;;;5.70;4.53;;;15.50;85.70;;;14.23;100.00;95255.28;5010846;28;20105;-67
2023/08/06 02:20:58;;;;;;;7.95;4.90;;;15.50;85.60;;;14.22;100.00;95258.97;5016187;28;20035;-68
2023/08/06 02:23:24;;;;;;;5.97;4.80;;;15.50;85.70;;;14.22;100.00;95251.84;5010658;28;20067;-67
2023/08/06 02:26:05;;;;;;;5.97;4.70;;;15.50;85.90;;;14.24;100.00;95251.59;5004428;28;20158;-67
2023/08/06 02:28:31;;;;;;;7.28;4.75;;;15.60;85.80;;;14.21;100.00;95247.59;5008118;28;20073;-67
2023/08/06 02:30:57;;;;;;;6.00;4.82;;;15.60;85.30;;;14.22;100.00;95240.44;4997516;28;20037;-67
2023/08/06 02:33:23;;;;;;;4.78;4.35;;;15.50;85.60;;;14.21;100.00;95236.19;5008754;28;20052;-67
2023/08/06 02:35:49;;;;;;;5.70;4.90;;;15.60;85.70;;;14.21;100.00;95229.06;5024137;28;20048;-67
2023/08/06 02:38:15;;;;;;;5.95;4.80;;;15.60;85.60;;;14.22;100.00;95229.88;5019626;28;20087;-67
2023/08/06 02:40:46;;;;;;;8.35;4.95;;;15.60;85.50;;;14.24;100.00;95230.44;5042829;28;20033;-67
2023/08/06 02:43:13;;;;;;;7.10;5.00;;;15.60;85.40;;;14.23;100.00;95226.19;5037139;28;20041;-67
2023/08/06 02:45:39;;;;;;;5.60;4.90;;;15.60;85.50;;;14.23;100.00;95226.19;4997855;28;20044;-66
2023/08/06 02:48:05;;;;;;;7.00;4.88;;;15.50;85.50;;;14.23;100.00;95219.06;5014005;28;20057;-67
2023/08/06 02:50:30;;;;;;;8.32;4.50;;;15.60;85.30;;;14.22;100.00;95214.81;5026208;28;20123;-67
2023/08/06 02:52:56;;;;;;;5.63;4.28;;;15.60;85.40;;;14.21;100.00;95215.84;5037161;28;20151;-67
2023/08/06 02:55:22;;;;;;;10.35;5.30;;;15.50;85.30;;;14.18;100.00;95210.22;5012295;28;20037;-67
2023/08/06 02:57:48;;;;;;;6.55;5.40;;;15.50;85.10;;;14.16;100.00;95201.72;5036420;28;20041;-67
2023/08/06 03:00:14;;;;;;;6.63;4.55;;;15.40;85.20;;;14.15;100.00;95200.13;5023548;28;20152;-67
2023/08/06 03:02:39;;;;;;;7.32;4.78;;;15.40;85.20;;;14.12;100.00;95203.22;5043930;28;20040;-67
2023/08/06 03:05:06;;;;;;;8.07;5.30;;;15.40;85.20;;;14.07;100.00;95204.72;5026639;28;20143;-67
2023/08/06 03:07:33;;;;;;;6.47;4.43;;;15.30;85.40;;;14.04;100.00;95201.75;5009070;28;20033;-67
2023/08/06 03:10:01;;;;;;;4.88;4.40;;;15.30;85.60;;;14.04;100.00;95204.41;4979372;28;20049;-67
2023/08/06 03:12:27;;;;;;;5.68;4.53;;;15.30;85.70;;;14.03;100.00;95213.34;5024957;28;20056;-67
2023/08/06 03:14:53;;;;;;;5.97;4.50;;;15.30;85.40;;;14.01;100.00;95200.34;5011242;28;20710;-67
2023/08/06 03:17:18;;;;;;;8.50;5.30;;;15.40;85.60;;;14.01;100.00;95210.13;5009131;28;20420;-67
2023/08/06 03:19:44;;;;;;;7.10;4.18;;;15.40;85.60;;;14.02;100.00;95207.25;4991106;28;20112;-67
2023/08/06 03:22:10;;;;;;;6.13;4.57;;;15.40;85.50;;;13.99;100.00;95213.00;5008801;28;20104;-66
2023/08/06 03:24:36;;;;;;;8.70;4.50;;;15.30;85.50;;;13.96;100.00;95210.03;4995992;28;20330;-67
2023/08/06 03:27:01;;;;;;;6.30;4.65;;;15.20;85.10;;;13.93;100.00;95208.66;4992225;28;20094;-66
2023/08/06 03:29:27;;;;;;;5.68;4.53;;;15.20;85.60;;;13.91;100.00;95210.72;5009155;28;20508;-66
2023/08/06 03:31:53;;;;;;;6.07;4.25;;;15.20;85.60;;;13.91;100.00;95205.44;4989832;28;20045;-66
2023/08/06 03:34:19;;;;;;;5.50;4.20;;;15.20;85.50;;;13.88;100.00;95203.25;5010359;28;20045;-67
2023/08/06 03:36:45;;;;;;;5.50;4.40;;;15.20;85.50;;;13.86;100.00;95209.81;5011995;28;20099;-67
2023/08/06 03:39:10;;;;;;;5.75;4.47;;;15.20;85.50;;;13.83;100.00;95202.34;4991520;28;20030;-67
2023/08/06 03:41:36;;;;;;;5.72;5.22;;;15.10;85.50;;;13.81;100.00;95193.84;5008192;28;20040;-67
2023/08/06 03:44:03;;;;;;;4.90;4.40;;;15.10;85.50;;;13.77;100.00;95182.91;5012475;28;20053;-66
2023/08/06 03:46:32;;;;;;;7.82;5.13;;;15.00;85.60;;;13.73;100.00;95192.34;5009179;28;20060;-67
2023/08/06 03:48:57;;;;;;;5.30;4.72;;;15.00;85.80;;;13.70;100.00;95182.22;5001346;28;20495;-67
2023/08/06 03:51:23;;;;;;;5.35;4.68;;;15.00;85.70;;;13.68;100.00;95184.31;5021507;28;20157;-67
2023/08/06 03:53:49;;;;;;;5.70;4.10;;;14.90;85.60;;;13.65;100.00;95179.47;5001140;28;20036;-67
2023/08/06 03:56:15;;;;;;;3.92;3.63;;;14.90;85.70;;;13.59;100.00;95175.13;5009399;28;20124;-66
2023/08/06 03:58:41;;;;;;;4.97;3.95;;;14.80;85.70;;;13.58;100.00;95171.69;5027338;28;20033;-67
2023/08/06 04:01:06;;;;;;;4.97;4.05;;;14.80;86.20;;;13.56;100.00;95180.84;5007657;28;20055;-67
2023/08/06 04:03:32;;;;;;;5.20;3.78;;;14.80;86.00;;;13.53;100.00;95182.09;5009011;28;20078;-68
2023/08/06 04:05:58;;;;;;;5.57;4.30;;;14.80;86.10;;;13.52;100.00;95180.50;5021051;28;20487;-67
2023/08/06 04:08:24;;;;;;;6.28;3.88;;;14.70;86.00;;;13.48;100.00;95180.16;5027285;28;20025;-67
2023/08/06 04:10:52;;;;;;;3.90;3.53;;;14.70;86.00;;;13.47;100.00;95183.03;5042514;28;20117;-67
2023/08/06 04:13:17;;;;;;;3.95;3.22;;;14.70;86.00;;;13.45;100.00;95187.75;5009023;28;20519;-67
2023/08/06 04:15:43;;;;;;;5.47;3.42;;;14.70;85.90;;;13.43;100.00;95181.88;5021635;28;20132;-67
2023/08/06 04:18:12;;;;;;;5.82;3.45;;;14.60;86.00;;;13.41;100.00;95190.03;5012485;28;20564;-66
2023/08/06 04:20:45;;;;;;;5.40;3.67;;;14.60;86.20;;;13.39;100.00;95180.75;4995296;28;20045;-67
2023/08/06 04:23:11;;;;;;;3.65;3.30;;;14.60;86.30;;;13.39;100.00;95180.75;5024488;28;20025;-67
2023/08/06 04:25:37;;;;;;;6.32;3.42;;;14.60;86.20;;;13.38;100.00;95171.22;5011341;28;20137;-67
2023/08/06 04:28:02;;;;;;;8.00;3.50;;;14.60;86.00;;;13.38;100.00;95174.66;5008660;28;20057;-67
2023/08/06 04:30:28;;;;;;;5.63;3.05;;;14.70;86.10;;;13.37;100.00;95180.97;5005486;28;20073;-66
2023/08/06 04:32:54;;;;;;;6.10;3.40;;;14.60;86.20;;;13.37;100.00;95183.63;5021856;28;20388;-67
2023/08/06 04:35:19;;;;;;;4.88;3.22;;;14.60;86.20;;;13.38;100.00;95182.56;5007379;28;20544;-66
2023/08/06 04:37:45;;;;;;;4.07;2.83;;;14.70;86.20;;;13.38;100.00;95185.22;5024714;28;20045;-67
2023/08/06 04:40:11;;;;;;;4.20;3.13;;;14.70;85.80;;;13.42;100.00;95180.28;5016899;28;20363;-68
2023/08/06 04:42:37;;;;;;;3.67;2.88;;;14.80;85.80;;;13.46;100.00;95182.22;5028668;28;20033;-66
2023/08/06 04:45:03;;;;;;;5.32;3.10;;;14.90;85.80;;;13.52;100.00;95190.25;5028590;28;20140;-66
2023/08/06 04:47:29;;;;;;;3.78;2.92;;;14.90;85.60;;;13.53;100.00;95186.59;4995684;28;20048;-66
2023/08/06 04:49:58;;;;;;;3.15;2.83;;;14.90;85.40;;;13.55;100.00;95189.81;4999794;28;20029;-67
2023/08/06 04:52:27;;;;;;;4.85;3.00;;;14.90;85.40;;;13.58;100.00;95189.34;5005472;28;20037;-68
2023/08/06 04:54:53;;;;;;;4.13;2.70;;;14.90;85.60;;;13.59;100.00;95186.50;5001678;28;20033;-67
2023/08/06 04:57:21;;;;;;;4.38;2.80;;;14.90;85.20;;;13.63;100.00;95186.84;4999602;28;20123;-67
2023/08/06 04:59:46;;;;;;;4.72;2.72;;;15.00;85.30;;;13.66;100.00;95179.25;4998995;28;20060;-67
2023/08/06 05:02:12;;;;;;;4.85;2.80;;;15.00;85.00;;;13.71;100.00;95186.47;5030545;28;20125;-68
2023/08/06 05:04:38;;;;;;;5.13;2.58;;;15.10;84.80;;;13.76;100.00;95176.00;5018460;28;20041;-66
2023/08/06 05:07:05;;;;;;;3.47;2.25;;;15.10;84.80;;;13.81;100.00;95178.00;5010594;28;20083;-66
2023/08/06 05:09:31;;;;;;;4.30;2.42;;;15.20;84.20;;;13.83;100.00;95179.38;4992291;28;20124;-66
2023/08/06 05:11:56;;;;;;;5.30;2.45;;;15.20;84.10;;;13.85;100.00;95179.94;5015597;28;20135;-67
2023/08/06 05:14:22;;;;;;;5.13;2.85;;;15.10;83.90;;;13.87;100.00;95183.16;4994055;28;20036;-67
2023/08/06 05:16:48;;;;;;;3.38;2.47;;;15.20;83.80;;;13.88;100.00;95189.22;5015557;28;20040;-66
2023/08/06 05:19:14;;;;;;;3.53;2.20;;;15.10;83.90;;;13.89;100.00;95181.06;5030163;28;20468;-65
2023/08/06 05:21:39;;;;;;;2.80;2.33;;;15.20;83.80;;;13.89;100.00;95190.84;5013092;28;20502;-66
2023/08/06 05:24:05;;;;;;;3.10;2.25;;;15.20;83.80;;;13.91;100.00;95194.84;5026940;28;20049;-66
2023/08/06 05:26:31;;;;;;;7.13;2.53;;;15.20;83.70;;;13.92;100.00;95196.47;5010653;28;20065;-67
2023/08/06 05:28:57;;;;;;;5.05;2.42;;;15.20;83.60;;;13.90;100.00;95192.44;5034906;28;20116;-67
2023/08/06 05:31:22;;;;;;;5.82;2.30;;;15.20;83.70;;;13.91;100.00;95188.78;5013752;28;20073;-67
2023/08/06 05:33:48;;;;;;;6.80;2.42;;;15.30;84.00;;;13.94;100.00;95193.59;5029789;28;20136;-67
2023/08/06 05:36:14;;;;;;;3.38;2.15;;;15.30;83.70;;;13.95;100.00;95196.00;5022283;28;20048;-66
2023/08/06 05:38:40;;;;;;;4.00;2.20;;;15.30;83.30;;;13.97;100.00;95193.94;5004893;28;20051;-66
2023/08/06 05:41:05;;;;;;;4.10;2.58;;;15.30;83.30;;;14.00;100.00;95190.81;4997851;28;20149;-67
2023/08/06 05:43:31;;;;;;;2.95;2.22;;;15.50;83.30;;;14.05;100.00;95195.44;5010511;28;20124;-66
2023/08/06 05:45:57;;;;;;;3.50;2.20;;;15.60;82.90;;;14.09;100.00;95194.72;5028147;28;20029;-65
2023/08/06 05:48:24;;;;;;;3.60;2.50;;;15.60;82.50;;;14.14;100.00;95190.56;5024417;28;20039;-67
2023/08/06 05:50:51;;;;;;;5.00;2.45;;;15.70;82.70;;;14.18;100.00;95189.06;5016210;28;20021;-66
2023/08/06 05:53:17;;;;;;;3.90;1.98;;;15.60;82.50;;;14.20;100.00;95197.56;4997438;28;20053;-66
2023/08/06 05:55:43;;;;;;;6.18;2.25;;;15.60;82.60;;;14.21;100.00;95197.34;5025615;28;20039;-67
2023/08/06 05:58:09;;;;;;;3.85;2.30;;;15.60;82.60;;;14.21;100.00;95193.88;5010512;28;20076;-65
2023/08/06 06:00:35;;;;;;;3.13;2.30;;;15.60;82.40;;;14.21;100.00;95193.88;5032519;28;20030;-65
2023/08/06 06:03:01;;;;;;;3.42;2.50;;;15.60;82.50;;;14.22;100.00;95190.19;5001174;28;20337;-66
2023/08/06 06:05:27;;;;;;;3.83;2.50;;;15.60;82.30;;;14.22;100.00;95195.50;5020775;28;20021;-68
2023/08/06 06:07:53;;;;;;;3.70;2.40;;;15.60;82.20;;;14.22;100.00;95195.50;5003175;28;20076;-68
2023/08/06 06:10:19;;;;;;;2.83;2.10;;;15.60;82.20;;;14.23;100.00;95192.59;5010341;28;20119;-68
2023/08/06 06:12:44;;;;;;;3.95;1.95;;;15.60;82.10;;;14.26;100.00;95196.66;5031263;28;20036;-66
2023/08/06 06:15:10;;;;;;;4.10;2.15;;;15.70;82.30;;;14.31;100.00;95194.91;5013524;28;20104;-70
2023/08/06 06:17:36;;;;;;;4.15;2.20;;;15.80;82.20;;;14.35;100.00;95200.53;5008578;28;20132;-65
2023/08/06 06:20:04;;;;;;;3.53;1.98;;;16.00;81.80;;;14.43;100.00;95197.53;5020964;28;20029;-69
2023/08/06 06:22:30;;;;;;;3.50;1.88;;;16.00;81.20;;;14.48;100.00;95189.69;5004192;28;20051;-67
2023/08/06 06:24:55;;;;;;;3.78;2.28;;;16.00;80.50;;;14.50;100.00;95195.59;5012882;28;20059;-67
2023/08/06 06:27:21;;;;;;;2.95;2.03;;;16.00;80.70;;;14.56;100.00;95199.94;5007598;28;20112;-66
2023/08/06 06:29:47;;;;;;;3.05;2.17;;;16.10;80.40;;;14.62;100.00;95198.97;5016680;28;20037;-67
2023/08/06 06:32:13;;;;;;;2.75;1.98;;;16.20;80.40;;;14.68;100.00;95195.38;5004291;28;20132;-67
2023/08/06 06:34:38;;;;;;;3.80;2.03;;;16.20;79.70;;;14.76;100.00;95196.06;5001207;28;20033;-67
2023/08/06 06:37:04;;;;;;;2.95;1.88;;;16.40;79.30;;;14.82;100.00;95195.09;5023435;28;20151;-66
2023/08/06 06:39:30;;;;;;;2.95;1.75;;;16.40;79.40;;;14.83;100.00;95192.22;5011675;28;20060;-67
2023/08/06 06:41:56;;;;;;;3.85;1.83;;;16.40;78.40;;;14.87;100.00;95195.19;5012182;28;20116;-66
2023/08/06 06:44:22;;;;;;;2.17;1.70;;;16.40;79.00;;;14.91;100.00;95197.13;5028065;28;20108;-67
2023/08/06 06:46:47;;;;;;;2.90;1.52;;;16.50;79.00;;;14.93;100.00;95197.69;5031746;28;20116;-66
2023/08/06 06:49:13;;;;;;;4.18;1.75;;;16.50;78.50;;;14.99;100.00;95201.25;5009478;28;20048;-66
2023/08/06 06:51:39;;;;;;;2.60;1.75;;;16.60;78.20;;;15.05;100.00;95195.00;5026510;28;20354;-66
2023/08/06 06:54:05;;;;;;;3.58;1.50;;;16.70;78.00;;;15.13;100.00;95207.03;5011264;28;20123;-67
2023/08/06 06:56:30;;;;;;;2.33;1.48;;;16.90;77.40;;;15.18;100.00;95192.03;5012567;28;20037;-66
2023/08/06 06:58:56;;;;;;;2.30;1.80;;;16.90;77.20;;;15.27;100.00;95190.59;5017206;28;20061;-65
2023/08/06 07:01:22;;;;;;;3.55;1.98;;;17.00;76.70;;;15.35;100.00;95188.59;5039339;28;20117;-66
2023/08/06 07:03:48;;;;;;;5.03;1.92;;;17.00;75.90;;;15.42;100.00;95195.34;5015476;28;20032;-69
2023/08/06 07:06:15;;;;;;;2.97;1.50;;;17.10;76.30;;;15.53;100.00;95191.00;5001676;28;20176;-67
2023/08/06 07:08:41;;;;;;;3.47;1.80;;;17.40;76.00;;;15.60;100.00;95187.16;4997085;28;20048;-68
2023/08/06 07:11:07;;;;;;;3.20;1.50;;;17.40;75.40;;;15.69;100.00;95178.81;5011201;28;20041;-68
2023/08/06 07:13:33;;;;;;;2.00;1.40;;;17.50;74.20;;;15.81;100.00;95180.31;5042057;28;20041;-66
2023/08/06 07:15:59;;;;;;;1.77;1.15;;;17.80;74.50;;;15.93;100.00;95173.06;5007395;28;20034;-66
2023/08/06 07:18:25;;;;;;;3.65;1.30;;;17.90;73.10;;;16.09;100.00;95173.28;5008490;28;20137;-70
2023/08/06 07:20:51;;;;;;;2.75;1.10;;;18.10;73.20;;;16.21;100.00;95176.59;5017155;28;20040;-67
2023/08/06 07:23:20;;;;;;;4.32;1.33;;;18.10;71.80;;;16.32;100.00;95167.72;4976935;28;20548;-65
2023/08/06 07:25:47;;;;;;;1.70;0.85;;;18.30;71.60;;;16.38;100.00;95171.25;4993775;28;20053;-68
2023/08/06 07:28:14;;;;;;;1.88;1.00;;;18.10;70.20;;;16.42;100.00;95172.34;5033801;28;20036;-68
2023/08/06 07:30:43;;;;;;;3.53;0.80;;;18.10;71.50;;;16.46;100.00;95173.44;5011442;28;20468;-68
2023/08/06 07:33:09;;;;;;;2.03;0.80;;;18.20;71.70;;;16.50;100.00;95174.53;5010195;28;20036;-69
2023/08/06 07:35:35;;;;;;;1.75;0.90;;;18.20;72.10;;;16.47;100.00;95170.53;4992664;28;20129;-69
2023/08/06 07:38:00;;;;;;;1.42;0.82;;;18.00;70.60;;;16.44;100.00;95170.25;5027659;28;20045;-66
2023/08/06 07:40:26;;;;;;;1.83;0.73;;;18.00;70.80;;;16.52;100.00;95159.16;5040970;28;20128;-65
2023/08/06 07:42:52;;;;;;;1.10;0.70;;;18.30;70.90;;;16.60;100.00;95158.75;5027070;28;20550;-68
2023/08/06 07:45:18;;;;;;;0.98;0.77;;;18.40;70.20;;;16.72;100.00;95155.97;5006957;28;20128;-66
2023/08/06 07:47:44;;;;;;;2.40;0.82;;;18.70;69.00;;;16.84;100.00;95168.06;5042620;28;20385;-67
2023/08/06 07:50:10;;;;;;;1.40;0.73;;;18.90;69.30;;;16.90;100.00;95147.66;5020125;28;20102;-69
2023/08/06 07:52:35;;;;;;;1.17;0.60;;;18.90;67.90;;;16.96;100.00;95146.63;4998889;28;20504;-67
2023/08/06 07:55:04;;;;;;;1.90;0.68;;;18.90;67.90;;;16.98;100.00;95157.84;5009355;28;20791;-67
2023/08/06 07:57:31;;;;;;;1.83;0.85;;;18.80;68.10;;;17.04;100.00;95159.47;4982541;28;20433;-67
2023/08/06 07:59:57;;;;;;;0.98;0.60;;;19.00;68.80;;;17.12;100.00;95164.31;5010704;28;20162;-67
2023/08/06 08:02:22;;;;;;;1.40;0.60;;;19.20;68.70;;;17.25;100.00;95164.97;5002193;28;20108;-67
2023/08/06 08:04:48;;;;;;;1.25;0.70;;;19.60;67.10;;;17.48;100.00;95161.16;5033928;28;20057;-68
2023/08/06 08:07:14;;;;;;;2.28;0.70;;;20.40;65.90;;;17.75;100.00;95148.63;4991841;28;20043;-68
2023/08/06 08:09:40;;;;;;;1.83;0.90;;;21.00;61.80;;;18.10;100.00;95150.66;5004188;28;20034;-66
2023/08/06 08:12:06;;;;;;;1.25;0.50;;;21.60;61.00;;;18.49;99.00;95144.97;4990343;28;20037;-68
2023/08/06 08:14:36;;;;;;;1.30;0.60;;;22.00;59.10;;;18.79;96.87;95141.63;5010358;28;20417;-66
2023/08/06 08:17:03;;;;;;;1.30;0.65;;;22.20;58.20;;;19.07;93.59;95149.13;5032214;28;20034;-66
2023/08/06 08:19:29;;;;;;;1.15;0.60;;;21.90;58.20;;;19.12;91.42;95129.66;5019497;28;20037;-68
2023/08/06 08:21:55;;;;;;;1.98;0.73;;;21.40;58.60;;;19.32;89.43;95129.66;5017183;28;20047;-69
2023/08/06 08:24:23;;;;;;;2.20;0.70;;;22.20;57.20;;;19.47;87.08;95123.53;5011386;28;20509;-65
2023/08/06 08:26:53;;;;;;;1.25;0.60;;;21.90;56.10;;;19.47;83.58;95119.00;5000835;28;20045;-69
2023/08/06 08:29:19;;;;;;;2.00;0.88;;;21.60;57.70;;;19.44;84.32;95116.84;5001132;28;20068;-67
2023/08/06 08:31:45;;;;;;;1.38;0.50;;;21.30;58.10;;;19.44;83.86;95113.38;4997118;28;20064;-68
2023/08/06 08:34:11;;;;;;;2.63;0.88;;;21.60;56.80;;;19.44;82.77;95132.06;4996866;28;20567;-69
2023/08/06 08:36:37;;;;;;;2.08;0.60;;;21.70;56.30;;;19.41;81.47;95124.59;5013939;28;20068;-68
2023/08/06 08:39:04;;;;;;;2.10;0.77;;;21.20;57.30;;;19.44;81.33;95116.84;5011823;28;20579;-68
2023/08/06 08:41:30;;;;;;;1.65;0.30;;;22.00;55.50;;;19.65;80.98;95124.84;5013134;28;20041;-68
2023/08/06 08:43:58;;;;;;;1.55;0.50;;;22.60;54.30;;;19.94;80.49;95103.72;5012019;28;20068;-69
2023/08/06 08:46:23;;;;;;;15.65;0.88;;;23.10;51.70;;;20.30;80.15;95118.53;5012017;28;20029;-69
2023/08/06 08:48:49;;;;;;;1.55;0.80;;;24.10;51.50;;;20.62;78.75;95126.16;5032044;28;20068;-71
2023/08/06 08:51:16;;;;;;;1.10;0.63;;;24.10;51.00;;;20.92;78.59;95114.50;5006414;28;20125;-67
2023/08/06 08:53:42;;;;;;;0.98;0.40;;;24.20;50.30;;;21.06;75.72;95114.69;4996847;28;20040;-69
2023/08/06 08:56:07;;;;;;;1.25;0.60;;;23.90;49.80;;;21.17;74.78;95115.38;5010957;28;20527;-68
2023/08/06 08:58:33;;;;;;;2.55;0.40;;;23.80;49.60;;;21.17;73.83;95132.22;5043196;28;20041;-68
2023/08/06 09:00:59;;;;;;;1.33;0.50;;;23.30;51.50;;;20.95;71.97;95118.47;5011109;28;20520;-68
2023/08/06 09:03:25;;;;;;;0.55;0.30;;;22.40;51.70;;;20.69;72.03;95115.16;5026560;28;20687;-69
2023/08/06 09:05:53;;;;;;;1.95;0.35;;;22.00;53.60;;;20.47;70.34;95116.34;5012434;28;20119;-68
2023/08/06 09:08:22;;;;;;;1.33;0.30;;;21.70;54.10;;;20.25;71.63;95123.09;5028136;28;20854;-68
2023/08/06 09:10:49;;;;;;;0.70;0.30;;;21.60;55.10;;;20.06;72.30;95133.56;5029232;28;20033;-68
2023/08/06 09:13:15;;;;;;;1.20;0.40;;;21.40;55.20;;;19.90;72.53;95122.13;5026646;28;20128;-67
2023/08/06 09:15:43;;;;;;;0.82;0.47;;;21.10;56.20;;;19.74;72.47;95125.94;5012045;28;20033;-70
2023/08/06 09:18:10;;;;;;;2.00;0.50;;;21.10;56.50;;;19.58;73.18;95130.47;5030690;28;20044;-68
2023/08/06 09:20:38;;;;;;;1.98;0.60;;;20.90;56.90;;;19.42;73.63;95131.53;5042002;28;20034;-67
2023/08/06 09:23:09;;;;;;;0.80;0.50;;;20.60;57.90;;;19.21;73.21;95133.38;5028121;28;20040;-65
2023/08/06 09:25:38;;;;;;;2.17;0.35;;;20.20;58.90;;;19.02;75.28;95162.44;5023760;28;20095;-68
2023/08/06 09:28:04;;;;;;;1.33;0.45;;;20.20;59.80;;;18.84;76.19;95162.94;5028573;28;20051;-68
2023/08/06 09:30:31;;;;;;;0.95;0.40;;;20.10;60.20;;;18.75;77.08;95157.31;5026541;28;20037;-69
2023/08/06 09:32:57;;;;;;;0.85;0.40;;;20.10;59.90;;;18.78;76.69;95154.13;5009848;28;20396;-68
2023/08/06 09:35:23;;;;;;;1.33;0.38;;;20.40;59.10;;;18.76;77.02;95156.25;5011392;28;20063;-68
2023/08/06 09:37:48;;;;;;;3.15;0.50;;;20.40;59.50;;;18.84;78.83;95154.94;4992699;28;20133;-69
2023/08/06 09:40:31;;;;;;;1.23;0.40;;;20.90;59.50;;;19.00;75.88;95142.44;5005737;28;20420;-70
2023/08/06 09:42:57;;;;;;;1.25;0.40;;;21.00;57.50;;;18.89;78.19;95154.97;5028276;28;20025;-67
2023/08/06 09:45:27;;;;;;;2.92;0.40;;;20.60;58.50;;;18.74;78.03;95154.91;4995386;28;20037;-68
2023/08/06 09:47:57;;;;;;;0.68;0.20;;;20.10;60.00;;;18.57;78.32;95161.25;4978520;28;20040;-67
2023/08/06 09:50:23;;;;;;;1.75;0.50;;;19.70;60.90;;;18.33;77.94;95170.72;5002849;28;20041;-71
2023/08/06 09:52:48;;;;;;;1.17;0.20;;;19.30;61.90;;;18.10;79.26;95171.94;5011321;28;20419;-67
2023/08/06 09:55:14;;;;;;;1.00;0.30;;;19.00;63.10;;;17.87;79.73;95167.03;5028693;28;20021;-66
2023/08/06 09:57:41;;;;;;;0.85;0.30;;;18.70;63.50;;;17.68;80.61;95169.31;4995474;28;20112;-69
2023/08/06 10:00:11;;;;;;;1.25;0.40;;;18.80;63.60;;;17.65;80.92;95162.63;5017697;28;20500;-69
2023/08/06 10:02:40;;;;;;;2.72;0.22;;;19.10;63.00;;;17.72;81.00;95162.44;5041396;28;20047;-67
2023/08/06 10:05:07;;;;;;;2.20;0.30;;;19.50;62.10;;;17.93;80.40;95160.69;5009477;28;20025;-68
2023/08/06 10:07:34;;;;;;;1.27;0.50;;;19.90;60.10;;;18.07;81.21;95151.19;5037424;28;20136;-70
2023/08/06 10:10:00;;;;;;;1.80;0.20;;;20.10;60.60;;;18.21;79.25;95160.31;5029380;28;20021;-67